Hlavní strana
METAR-TAF:

METAR-TAF

Letiště :

Vladikavkaz, Rusko

zeměpisná šířka: 43-12-18N, zeměpisná délka: 044-36-24E, výška: 510 m

Aktuální stav počasí

Zpráva byla vytvořena před 32 minutami, v 01:00 UTC
Jihovýchodní vítr 4 kt
Teplota 0°C
Vlhkost vzduchu 93%
Tlak 1021 hPa
Viditelnost 10 km a více

METAR: URMO 220100Z AUTO 13002MPS 9999 // ///////// 00/M01 Q1021 RMK QFE722/0963

Čas: 04:32 (01:32 UTC)

Předpověď počasí

Zpráva byla vytvořena před 11 hodinami a 32 minutami, v 14:00 UTC
Předpověď platná od 21 v 15 UTC do 21 v 24 UTC
Východoseverovýchodní vítr 6 kt s nárazy do 16 kt
Viditelnost 10 km a více

TAF: URMO 211400Z 2115/2124 07003G08MPS 9999 NSC

Stav a předpovědi počasí z více než 4 000 letišť (zprávy METAR a TAF).

Červené a žluté tečky na mapě představují dostupné meteorologické stanice.

Když kurzor umístíte na tečku, zobrazí se název stanice.

Pak kliknutím zobrazíte stav a předpověď počasí.

Chcete-li změnit mapu, kliknutím na zelené tlačítko se znaménkem +mapu přiblížíte, kliknutím na zelené tlačítko se znaménkem – mapu oddálíte a kliknutím na zelené šipky přejdete na sousední mapy.


METAR-TAF: